sensor_id;sensor_type;location;lat;lon;timestamp;P1;durP1;ratioP1;P2;durP2;ratioP2
24873;SDS011;12945;42.648;23.370;2023-07-02T00:00:15;19.13;;;8.40;;
24873;SDS011;12945;42.648;23.370;2023-07-02T00:02:40;16.60;;;8.55;;
24873;SDS011;12945;42.648;23.370;2023-07-02T00:05:06;16.00;;;8.43;;
24873;SDS011;12945;42.648;23.370;2023-07-02T00:07:31;12.65;;;7.93;;
24873;SDS011;12945;42.648;23.370;2023-07-02T00:09:57;12.40;;;7.75;;
24873;SDS011;12945;42.648;23.370;2023-07-02T00:12:23;13.45;;;7.88;;
24873;SDS011;12945;42.648;23.370;2023-07-02T00:14:48;18.40;;;8.25;;
24873;SDS011;12945;42.648;23.370;2023-07-02T00:17:14;11.70;;;7.65;;
24873;SDS011;12945;42.648;23.370;2023-07-02T00:19:39;14.00;;;7.72;;
24873;SDS011;12945;42.648;23.370;2023-07-02T00:22:09;15.65;;;7.50;;
24873;SDS011;12945;42.648;23.370;2023-07-02T00:24:35;11.18;;;7.55;;
24873;SDS011;12945;42.648;23.370;2023-07-02T00:27:01;12.40;;;7.78;;
24873;SDS011;12945;42.648;23.370;2023-07-02T00:29:26;15.15;;;8.40;;
24873;SDS011;12945;42.648;23.370;2023-07-02T00:31:51;12.80;;;7.68;;
24873;SDS011;12945;42.648;23.370;2023-07-02T00:34:17;15.27;;;7.80;;
24873;SDS011;12945;42.648;23.370;2023-07-02T00:36:43;11.48;;;8.05;;
24873;SDS011;12945;42.648;23.370;2023-07-02T00:39:08;14.63;;;7.95;;
24873;SDS011;12945;42.648;23.370;2023-07-02T00:41:33;18.75;;;8.35;;
24873;SDS011;12945;42.648;23.370;2023-07-02T00:43:59;13.50;;;8.23;;
24873;SDS011;12945;42.648;23.370;2023-07-02T00:46:24;16.58;;;8.10;;
24873;SDS011;12945;42.648;23.370;2023-07-02T00:48:51;21.25;;;8.57;;
24873;SDS011;12945;42.648;23.370;2023-07-02T00:51:17;16.98;;;8.73;;
24873;SDS011;12945;42.648;23.370;2023-07-02T00:53:46;19.63;;;10.60;;
24873;SDS011;12945;42.648;23.370;2023-07-02T00:56:12;19.10;;;9.68;;
24873;SDS011;12945;42.648;23.370;2023-07-02T00:58:38;18.10;;;9.25;;
24873;SDS011;12945;42.648;23.370;2023-07-02T01:01:04;19.27;;;10.32;;
24873;SDS011;12945;42.648;23.370;2023-07-02T01:03:29;18.90;;;10.80;;
24873;SDS011;12945;42.648;23.370;2023-07-02T01:05:57;20.73;;;11.20;;
24873;SDS011;12945;42.648;23.370;2023-07-02T01:08:23;18.98;;;10.30;;
24873;SDS011;12945;42.648;23.370;2023-07-02T01:10:48;19.70;;;10.50;;
24873;SDS011;12945;42.648;23.370;2023-07-02T01:13:14;18.35;;;10.48;;
24873;SDS011;12945;42.648;23.370;2023-07-02T01:15:40;20.05;;;11.07;;
24873;SDS011;12945;42.648;23.370;2023-07-02T01:18:07;19.35;;;10.68;;
24873;SDS011;12945;42.648;23.370;2023-07-02T01:20:32;18.27;;;10.57;;
24873;SDS011;12945;42.648;23.370;2023-07-02T01:22:58;18.48;;;10.38;;
24873;SDS011;12945;42.648;23.370;2023-07-02T01:25:28;18.98;;;10.45;;
24873;SDS011;12945;42.648;23.370;2023-07-02T01:27:54;19.25;;;9.77;;
24873;SDS011;12945;42.648;23.370;2023-07-02T01:30:20;17.88;;;9.95;;
24873;SDS011;12945;42.648;23.370;2023-07-02T01:32:46;19.35;;;11.05;;
24873;SDS011;12945;42.648;23.370;2023-07-02T01:35:11;15.10;;;9.73;;
24873;SDS011;12945;42.648;23.370;2023-07-02T01:37:36;16.70;;;10.27;;
24873;SDS011;12945;42.648;23.370;2023-07-02T01:40:05;20.52;;;10.32;;
24873;SDS011;12945;42.648;23.370;2023-07-02T01:42:33;20.63;;;10.30;;
24873;SDS011;12945;42.648;23.370;2023-07-02T01:44:59;17.63;;;9.95;;
24873;SDS011;12945;42.648;23.370;2023-07-02T01:47:24;19.98;;;9.65;;
24873;SDS011;12945;42.648;23.370;2023-07-02T01:49:50;17.40;;;9.77;;
24873;SDS011;12945;42.648;23.370;2023-07-02T01:52:15;17.63;;;9.73;;
24873;SDS011;12945;42.648;23.370;2023-07-02T01:54:41;17.73;;;10.07;;
24873;SDS011;12945;42.648;23.370;2023-07-02T01:57:07;16.38;;;9.38;;
24873;SDS011;12945;42.648;23.370;2023-07-02T01:59:32;16.60;;;9.63;;
24873;SDS011;12945;42.648;23.370;2023-07-02T02:01:57;16.98;;;9.32;;
24873;SDS011;12945;42.648;23.370;2023-07-02T02:04:22;16.52;;;9.75;;
24873;SDS011;12945;42.648;23.370;2023-07-02T02:06:48;18.40;;;9.85;;
24873;SDS011;12945;42.648;23.370;2023-07-02T02:09:13;16.25;;;9.93;;
24873;SDS011;12945;42.648;23.370;2023-07-02T02:11:39;17.02;;;9.80;;
24873;SDS011;12945;42.648;23.370;2023-07-02T02:14:05;21.42;;;9.55;;
24873;SDS011;12945;42.648;23.370;2023-07-02T02:16:30;20.27;;;10.23;;
24873;SDS011;12945;42.648;23.370;2023-07-02T02:18:55;21.30;;;10.73;;
24873;SDS011;12945;42.648;23.370;2023-07-02T02:21:21;20.38;;;10.98;;
24873;SDS011;12945;42.648;23.370;2023-07-02T02:23:47;18.38;;;10.45;;
24873;SDS011;12945;42.648;23.370;2023-07-02T02:26:13;16.58;;;10.48;;
24873;SDS011;12945;42.648;23.370;2023-07-02T02:28:38;15.93;;;10.00;;
24873;SDS011;12945;42.648;23.370;2023-07-02T02:31:03;18.40;;;10.77;;
24873;SDS011;12945;42.648;23.370;2023-07-02T02:33:29;15.60;;;10.80;;
24873;SDS011;12945;42.648;23.370;2023-07-02T02:35:54;17.27;;;11.13;;
24873;SDS011;12945;42.648;23.370;2023-07-02T02:38:20;17.25;;;10.75;;
24873;SDS011;12945;42.648;23.370;2023-07-02T02:40:45;15.35;;;9.55;;
24873;SDS011;12945;42.648;23.370;2023-07-02T02:43:10;20.80;;;9.82;;
24873;SDS011;12945;42.648;23.370;2023-07-02T02:45:35;17.70;;;9.88;;
24873;SDS011;12945;42.648;23.370;2023-07-02T02:48:01;17.50;;;9.77;;
24873;SDS011;12945;42.648;23.370;2023-07-02T02:50:26;21.10;;;10.30;;
24873;SDS011;12945;42.648;23.370;2023-07-02T02:52:52;17.40;;;9.98;;
24873;SDS011;12945;42.648;23.370;2023-07-02T02:55:18;15.27;;;9.70;;
24873;SDS011;12945;42.648;23.370;2023-07-02T02:57:43;14.75;;;9.55;;
24873;SDS011;12945;42.648;23.370;2023-07-02T03:00:08;15.55;;;10.15;;
24873;SDS011;12945;42.648;23.370;2023-07-02T03:02:34;14.55;;;9.18;;
24873;SDS011;12945;42.648;23.370;2023-07-02T03:05:00;16.35;;;8.88;;
24873;SDS011;12945;42.648;23.370;2023-07-02T03:07:28;13.35;;;9.18;;
24873;SDS011;12945;42.648;23.370;2023-07-02T03:09:53;15.35;;;10.20;;
24873;SDS011;12945;42.648;23.370;2023-07-02T03:12:20;17.35;;;9.18;;
24873;SDS011;12945;42.648;23.370;2023-07-02T03:14:45;16.20;;;9.80;;
24873;SDS011;12945;42.648;23.370;2023-07-02T03:17:12;17.63;;;9.93;;
24873;SDS011;12945;42.648;23.370;2023-07-02T03:19:38;18.45;;;9.95;;
24873;SDS011;12945;42.648;23.370;2023-07-02T03:22:03;15.93;;;9.93;;
24873;SDS011;12945;42.648;23.370;2023-07-02T03:24:28;20.92;;;9.52;;
24873;SDS011;12945;42.648;23.370;2023-07-02T03:26:54;16.05;;;9.63;;
24873;SDS011;12945;42.648;23.370;2023-07-02T03:29:19;15.90;;;9.73;;
24873;SDS011;12945;42.648;23.370;2023-07-02T03:31:45;17.77;;;9.13;;
24873;SDS011;12945;42.648;23.370;2023-07-02T03:34:10;15.23;;;10.15;;
24873;SDS011;12945;42.648;23.370;2023-07-02T03:36:36;19.38;;;10.05;;
24873;SDS011;12945;42.648;23.370;2023-07-02T03:39:02;16.02;;;10.07;;
24873;SDS011;12945;42.648;23.370;2023-07-02T03:41:27;15.00;;;9.75;;
24873;SDS011;12945;42.648;23.370;2023-07-02T03:43:53;17.42;;;10.20;;
24873;SDS011;12945;42.648;23.370;2023-07-02T03:46:18;16.45;;;9.98;;
24873;SDS011;12945;42.648;23.370;2023-07-02T03:48:43;16.27;;;10.48;;
24873;SDS011;12945;42.648;23.370;2023-07-02T03:51:09;18.73;;;10.95;;
24873;SDS011;12945;42.648;23.370;2023-07-02T03:53:34;17.83;;;10.65;;
24873;SDS011;12945;42.648;23.370;2023-07-02T03:55:59;17.70;;;10.32;;
24873;SDS011;12945;42.648;23.370;2023-07-02T03:58:25;17.42;;;9.68;;
24873;SDS011;12945;42.648;23.370;2023-07-02T04:00:50;15.77;;;9.73;;
24873;SDS011;12945;42.648;23.370;2023-07-02T04:03:16;18.60;;;10.35;;
24873;SDS011;12945;42.648;23.370;2023-07-02T04:05:42;19.05;;;10.10;;
24873;SDS011;12945;42.648;23.370;2023-07-02T04:08:07;17.15;;;10.50;;
24873;SDS011;12945;42.648;23.370;2023-07-02T04:10:32;18.27;;;10.52;;
24873;SDS011;12945;42.648;23.370;2023-07-02T04:12:58;18.05;;;10.48;;
24873;SDS011;12945;42.648;23.370;2023-07-02T04:15:23;17.25;;;9.75;;
24873;SDS011;12945;42.648;23.370;2023-07-02T04:17:50;17.23;;;9.63;;
24873;SDS011;12945;42.648;23.370;2023-07-02T04:20:16;21.15;;;10.57;;
24873;SDS011;12945;42.648;23.370;2023-07-02T04:22:41;18.08;;;10.43;;
24873;SDS011;12945;42.648;23.370;2023-07-02T04:25:06;20.17;;;9.98;;
24873;SDS011;12945;42.648;23.370;2023-07-02T04:27:32;18.45;;;11.02;;
24873;SDS011;12945;42.648;23.370;2023-07-02T04:29:57;16.77;;;10.50;;
24873;SDS011;12945;42.648;23.370;2023-07-02T04:32:22;19.42;;;11.07;;
24873;SDS011;12945;42.648;23.370;2023-07-02T04:34:48;20.55;;;10.57;;
24873;SDS011;12945;42.648;23.370;2023-07-02T04:37:13;17.10;;;10.23;;
24873;SDS011;12945;42.648;23.370;2023-07-02T04:39:40;26.25;;;11.60;;
24873;SDS011;12945;42.648;23.370;2023-07-02T04:42:05;16.63;;;10.88;;
24873;SDS011;12945;42.648;23.370;2023-07-02T04:44:31;18.77;;;10.75;;
24873;SDS011;12945;42.648;23.370;2023-07-02T04:47:00;19.60;;;11.93;;
24873;SDS011;12945;42.648;23.370;2023-07-02T04:49:26;18.57;;;10.87;;
24873;SDS011;12945;42.648;23.370;2023-07-02T04:51:51;23.08;;;11.43;;
24873;SDS011;12945;42.648;23.370;2023-07-02T04:54:18;16.85;;;10.13;;
24873;SDS011;12945;42.648;23.370;2023-07-02T04:56:44;18.77;;;11.32;;
24873;SDS011;12945;42.648;23.370;2023-07-02T04:59:09;18.30;;;10.95;;
24873;SDS011;12945;42.648;23.370;2023-07-02T05:01:34;23.95;;;11.20;;
24873;SDS011;12945;42.648;23.370;2023-07-02T05:04:00;19.30;;;10.98;;
24873;SDS011;12945;42.648;23.370;2023-07-02T05:06:25;20.55;;;11.10;;
24873;SDS011;12945;42.648;23.370;2023-07-02T05:08:51;18.10;;;10.65;;
24873;SDS011;12945;42.648;23.370;2023-07-02T05:11:17;21.25;;;11.18;;
24873;SDS011;12945;42.648;23.370;2023-07-02T05:13:43;17.27;;;11.52;;
24873;SDS011;12945;42.648;23.370;2023-07-02T05:16:08;21.50;;;10.90;;
24873;SDS011;12945;42.648;23.370;2023-07-02T05:18:33;23.33;;;11.15;;
24873;SDS011;12945;42.648;23.370;2023-07-02T05:20:59;18.90;;;11.30;;
24873;SDS011;12945;42.648;23.370;2023-07-02T05:23:24;22.20;;;11.70;;
24873;SDS011;12945;42.648;23.370;2023-07-02T05:25:49;16.48;;;11.38;;
24873;SDS011;12945;42.648;23.370;2023-07-02T05:28:15;20.33;;;11.20;;
24873;SDS011;12945;42.648;23.370;2023-07-02T05:30:40;19.40;;;10.48;;
24873;SDS011;12945;42.648;23.370;2023-07-02T05:33:05;18.63;;;11.32;;
24873;SDS011;12945;42.648;23.370;2023-07-02T05:35:31;18.27;;;11.00;;
24873;SDS011;12945;42.648;23.370;2023-07-02T05:37:56;20.58;;;10.60;;
24873;SDS011;12945;42.648;23.370;2023-07-02T05:40:21;17.13;;;10.20;;
24873;SDS011;12945;42.648;23.370;2023-07-02T05:42:47;15.90;;;9.80;;
24873;SDS011;12945;42.648;23.370;2023-07-02T05:45:12;19.05;;;10.43;;
24873;SDS011;12945;42.648;23.370;2023-07-02T05:47:37;15.48;;;10.07;;
24873;SDS011;12945;42.648;23.370;2023-07-02T05:50:03;16.30;;;9.93;;
24873;SDS011;12945;42.648;23.370;2023-07-02T05:52:28;17.42;;;10.35;;
24873;SDS011;12945;42.648;23.370;2023-07-02T05:54:54;18.40;;;10.70;;
24873;SDS011;12945;42.648;23.370;2023-07-02T05:57:19;24.05;;;11.13;;
24873;SDS011;12945;42.648;23.370;2023-07-02T05:59:44;18.40;;;10.50;;
24873;SDS011;12945;42.648;23.370;2023-07-02T06:02:10;20.38;;;10.88;;
24873;SDS011;12945;42.648;23.370;2023-07-02T06:04:35;21.92;;;11.02;;
24873;SDS011;12945;42.648;23.370;2023-07-02T06:07:01;19.63;;;9.93;;
24873;SDS011;12945;42.648;23.370;2023-07-02T06:09:26;18.00;;;9.82;;
24873;SDS011;12945;42.648;23.370;2023-07-02T06:11:51;13.52;;;9.40;;
24873;SDS011;12945;42.648;23.370;2023-07-02T06:14:23;19.48;;;9.93;;
24873;SDS011;12945;42.648;23.370;2023-07-02T06:16:50;15.10;;;9.48;;
24873;SDS011;12945;42.648;23.370;2023-07-02T06:19:16;12.27;;;8.55;;
24873;SDS011;12945;42.648;23.370;2023-07-02T06:21:41;19.42;;;9.65;;
24873;SDS011;12945;42.648;23.370;2023-07-02T06:24:06;18.58;;;10.20;;
24873;SDS011;12945;42.648;23.370;2023-07-02T06:26:32;17.00;;;10.23;;
24873;SDS011;12945;42.648;23.370;2023-07-02T06:28:57;16.17;;;9.98;;
24873;SDS011;12945;42.648;23.370;2023-07-02T06:31:23;20.40;;;10.00;;
24873;SDS011;12945;42.648;23.370;2023-07-02T06:33:49;17.02;;;9.68;;
24873;SDS011;12945;42.648;23.370;2023-07-02T06:36:14;16.38;;;9.68;;
24873;SDS011;12945;42.648;23.370;2023-07-02T06:38:40;16.77;;;11.13;;
24873;SDS011;12945;42.648;23.370;2023-07-02T06:41:05;19.17;;;10.40;;
24873;SDS011;12945;42.648;23.370;2023-07-02T06:43:30;17.38;;;9.75;;
24873;SDS011;12945;42.648;23.370;2023-07-02T06:45:56;15.18;;;8.63;;
24873;SDS011;12945;42.648;23.370;2023-07-02T06:48:21;16.25;;;8.55;;
24873;SDS011;12945;42.648;23.370;2023-07-02T06:50:47;15.40;;;8.43;;
24873;SDS011;12945;42.648;23.370;2023-07-02T06:53:13;13.27;;;7.82;;
24873;SDS011;12945;42.648;23.370;2023-07-02T06:55:38;16.45;;;9.18;;
24873;SDS011;12945;42.648;23.370;2023-07-02T06:58:04;14.20;;;7.85;;
24873;SDS011;12945;42.648;23.370;2023-07-02T07:00:33;19.13;;;9.48;;
24873;SDS011;12945;42.648;23.370;2023-07-02T07:03:02;14.75;;;8.25;;
24873;SDS011;12945;42.648;23.370;2023-07-02T07:05:29;11.88;;;6.38;;
24873;SDS011;12945;42.648;23.370;2023-07-02T07:07:54;14.88;;;8.55;;
24873;SDS011;12945;42.648;23.370;2023-07-02T07:10:19;15.15;;;8.07;;
24873;SDS011;12945;42.648;23.370;2023-07-02T07:12:45;19.52;;;8.38;;
24873;SDS011;12945;42.648;23.370;2023-07-02T07:15:10;15.43;;;9.13;;
24873;SDS011;12945;42.648;23.370;2023-07-02T07:17:36;15.73;;;9.77;;
24873;SDS011;12945;42.648;23.370;2023-07-02T07:20:01;17.95;;;8.55;;
24873;SDS011;12945;42.648;23.370;2023-07-02T07:22:29;15.75;;;9.88;;
24873;SDS011;12945;42.648;23.370;2023-07-02T07:24:55;16.80;;;9.38;;
24873;SDS011;12945;42.648;23.370;2023-07-02T07:27:20;19.30;;;10.27;;
24873;SDS011;12945;42.648;23.370;2023-07-02T07:29:46;18.75;;;9.38;;
24873;SDS011;12945;42.648;23.370;2023-07-02T07:32:11;24.00;;;13.07;;
24873;SDS011;12945;42.648;23.370;2023-07-02T07:34:37;24.55;;;12.55;;
24873;SDS011;12945;42.648;23.370;2023-07-02T07:37:02;27.27;;;12.85;;
24873;SDS011;12945;42.648;23.370;2023-07-02T07:39:28;17.33;;;9.63;;
24873;SDS011;12945;42.648;23.370;2023-07-02T07:41:53;20.58;;;10.70;;
24873;SDS011;12945;42.648;23.370;2023-07-02T07:44:18;18.55;;;9.90;;
24873;SDS011;12945;42.648;23.370;2023-07-02T07:46:44;13.63;;;9.05;;
24873;SDS011;12945;42.648;23.370;2023-07-02T07:49:09;15.48;;;9.07;;
24873;SDS011;12945;42.648;23.370;2023-07-02T07:51:34;13.52;;;9.38;;
24873;SDS011;12945;42.648;23.370;2023-07-02T07:54:01;18.83;;;9.07;;
24873;SDS011;12945;42.648;23.370;2023-07-02T07:56:26;14.40;;;8.93;;
24873;SDS011;12945;42.648;23.370;2023-07-02T07:58:52;16.73;;;9.55;;
24873;SDS011;12945;42.648;23.370;2023-07-02T08:01:17;18.52;;;9.13;;
24873;SDS011;12945;42.648;23.370;2023-07-02T08:03:42;14.40;;;9.15;;
24873;SDS011;12945;42.648;23.370;2023-07-02T08:06:08;17.20;;;8.00;;
24873;SDS011;12945;42.648;23.370;2023-07-02T08:08:33;14.90;;;7.85;;
24873;SDS011;12945;42.648;23.370;2023-07-02T08:10:59;19.15;;;9.27;;
24873;SDS011;12945;42.648;23.370;2023-07-02T08:13:26;16.42;;;9.77;;
24873;SDS011;12945;42.648;23.370;2023-07-02T08:15:51;14.60;;;8.25;;
24873;SDS011;12945;42.648;23.370;2023-07-02T08:18:16;12.63;;;7.85;;
24873;SDS011;12945;42.648;23.370;2023-07-02T08:20:41;12.32;;;7.55;;
24873;SDS011;12945;42.648;23.370;2023-07-02T08:23:07;14.15;;;7.90;;
24873;SDS011;12945;42.648;23.370;2023-07-02T08:25:32;12.98;;;8.07;;
24873;SDS011;12945;42.648;23.370;2023-07-02T08:27:58;15.55;;;8.50;;
24873;SDS011;12945;42.648;23.370;2023-07-02T08:30:23;14.88;;;8.18;;
24873;SDS011;12945;42.648;23.370;2023-07-02T08:32:49;13.70;;;8.35;;
24873;SDS011;12945;42.648;23.370;2023-07-02T08:35:14;14.73;;;8.32;;
24873;SDS011;12945;42.648;23.370;2023-07-02T08:37:39;13.75;;;7.95;;
24873;SDS011;12945;42.648;23.370;2023-07-02T08:40:17;11.55;;;7.97;;
24873;SDS011;12945;42.648;23.370;2023-07-02T08:42:43;12.82;;;8.00;;
24873;SDS011;12945;42.648;23.370;2023-07-02T08:45:09;11.60;;;7.50;;
24873;SDS011;12945;42.648;23.370;2023-07-02T08:47:35;10.90;;;7.60;;
24873;SDS011;12945;42.648;23.370;2023-07-02T08:50:01;14.43;;;7.38;;
24873;SDS011;12945;42.648;23.370;2023-07-02T08:52:28;14.25;;;7.78;;
24873;SDS011;12945;42.648;23.370;2023-07-02T08:54:54;11.13;;;8.02;;
24873;SDS011;12945;42.648;23.370;2023-07-02T08:57:20;10.20;;;6.50;;
24873;SDS011;12945;42.648;23.370;2023-07-02T08:59:46;10.43;;;6.55;;
24873;SDS011;12945;42.648;23.370;2023-07-02T09:02:12;10.52;;;7.05;;
24873;SDS011;12945;42.648;23.370;2023-07-02T09:04:38;13.05;;;6.93;;
24873;SDS011;12945;42.648;23.370;2023-07-02T09:09:29;10.30;;;6.70;;
24873;SDS011;12945;42.648;23.370;2023-07-02T09:11:54;10.95;;;7.00;;
24873;SDS011;12945;42.648;23.370;2023-07-02T09:14:26;10.30;;;6.88;;
24873;SDS011;12945;42.648;23.370;2023-07-02T09:17:02;11.68;;;7.53;;
24873;SDS011;12945;42.648;23.370;2023-07-02T09:19:28;13.40;;;7.28;;
24873;SDS011;12945;42.648;23.370;2023-07-02T09:21:56;11.50;;;7.35;;
24873;SDS011;12945;42.648;23.370;2023-07-02T09:24:22;13.30;;;8.20;;
24873;SDS011;12945;42.648;23.370;2023-07-02T09:26:49;16.95;;;7.88;;
24873;SDS011;12945;42.648;23.370;2023-07-02T09:29:18;12.23;;;7.70;;
24873;SDS011;12945;42.648;23.370;2023-07-02T09:31:47;14.30;;;8.48;;
24873;SDS011;12945;42.648;23.370;2023-07-02T09:34:13;13.50;;;8.10;;
24873;SDS011;12945;42.648;23.370;2023-07-02T09:36:39;10.90;;;7.63;;
24873;SDS011;12945;42.648;23.370;2023-07-02T09:39:11;13.13;;;8.23;;
24873;SDS011;12945;42.648;23.370;2023-07-02T09:41:37;12.90;;;7.77;;
24873;SDS011;12945;42.648;23.370;2023-07-02T09:44:02;12.63;;;7.63;;
24873;SDS011;12945;42.648;23.370;2023-07-02T09:46:28;14.32;;;8.15;;
24873;SDS011;12945;42.648;23.370;2023-07-02T09:48:54;11.38;;;7.13;;
24873;SDS011;12945;42.648;23.370;2023-07-02T09:51:20;11.57;;;7.88;;
24873;SDS011;12945;42.648;23.370;2023-07-02T09:53:46;10.88;;;7.50;;
24873;SDS011;12945;42.648;23.370;2023-07-02T09:56:11;13.50;;;7.68;;
24873;SDS011;12945;42.648;23.370;2023-07-02T09:58:37;14.23;;;7.93;;
24873;SDS011;12945;42.648;23.370;2023-07-02T10:01:02;14.20;;;7.80;;
24873;SDS011;12945;42.648;23.370;2023-07-02T10:03:31;13.88;;;7.32;;
24873;SDS011;12945;42.648;23.370;2023-07-02T10:06:06;10.05;;;7.30;;
24873;SDS011;12945;42.648;23.370;2023-07-02T10:08:31;9.55;;;6.43;;
24873;SDS011;12945;42.648;23.370;2023-07-02T10:11:07;14.45;;;7.68;;
24873;SDS011;12945;42.648;23.370;2023-07-02T10:13:33;9.32;;;7.13;;
24873;SDS011;12945;42.648;23.370;2023-07-02T10:16:02;10.00;;;6.53;;
24873;SDS011;12945;42.648;23.370;2023-07-02T10:18:28;12.90;;;7.18;;
24873;SDS011;12945;42.648;23.370;2023-07-02T10:20:53;11.15;;;7.10;;
24873;SDS011;12945;42.648;23.370;2023-07-02T10:23:18;10.57;;;6.30;;
24873;SDS011;12945;42.648;23.370;2023-07-02T10:25:44;10.30;;;6.88;;
24873;SDS011;12945;42.648;23.370;2023-07-02T10:28:19;10.88;;;6.75;;
24873;SDS011;12945;42.648;23.370;2023-07-02T10:30:47;9.73;;;6.82;;
24873;SDS011;12945;42.648;23.370;2023-07-02T10:33:13;10.30;;;6.95;;
24873;SDS011;12945;42.648;23.370;2023-07-02T10:35:39;9.43;;;6.55;;
24873;SDS011;12945;42.648;23.370;2023-07-02T10:38:06;11.88;;;6.60;;
24873;SDS011;12945;42.648;23.370;2023-07-02T10:40:32;9.52;;;5.88;;
24873;SDS011;12945;42.648;23.370;2023-07-02T10:42:58;9.80;;;6.13;;
24873;SDS011;12945;42.648;23.370;2023-07-02T10:45:34;8.60;;;6.03;;
24873;SDS011;12945;42.648;23.370;2023-07-02T10:48:01;10.35;;;6.00;;
24873;SDS011;12945;42.648;23.370;2023-07-02T10:50:26;9.70;;;6.40;;
24873;SDS011;12945;42.648;23.370;2023-07-02T10:52:52;10.18;;;6.40;;
24873;SDS011;12945;42.648;23.370;2023-07-02T10:55:18;8.02;;;6.35;;
24873;SDS011;12945;42.648;23.370;2023-07-02T10:57:43;9.85;;;5.72;;
24873;SDS011;12945;42.648;23.370;2023-07-02T11:00:09;8.93;;;6.13;;
24873;SDS011;12945;42.648;23.370;2023-07-02T11:02:35;9.95;;;6.03;;
24873;SDS011;12945;42.648;23.370;2023-07-02T11:05:00;8.73;;;6.20;;
24873;SDS011;12945;42.648;23.370;2023-07-02T11:07:26;8.82;;;6.15;;
24873;SDS011;12945;42.648;23.370;2023-07-02T11:09:51;9.70;;;6.05;;
24873;SDS011;12945;42.648;23.370;2023-07-02T11:12:17;10.77;;;6.22;;
24873;SDS011;12945;42.648;23.370;2023-07-02T11:14:42;13.32;;;6.47;;
24873;SDS011;12945;42.648;23.370;2023-07-02T11:17:07;10.98;;;5.70;;
24873;SDS011;12945;42.648;23.370;2023-07-02T11:19:34;10.35;;;6.40;;
24873;SDS011;12945;42.648;23.370;2023-07-02T11:22:00;8.45;;;6.28;;
24873;SDS011;12945;42.648;23.370;2023-07-02T11:26:53;8.38;;;6.13;;
24873;SDS011;12945;42.648;23.370;2023-07-02T11:29:18;7.13;;;5.65;;
24873;SDS011;12945;42.648;23.370;2023-07-02T11:31:43;9.95;;;6.57;;
24873;SDS011;12945;42.648;23.370;2023-07-02T11:34:16;8.80;;;6.00;;
24873;SDS011;12945;42.648;23.370;2023-07-02T11:36:41;9.48;;;6.75;;
24873;SDS011;12945;42.648;23.370;2023-07-02T11:39:07;8.45;;;6.07;;
24873;SDS011;12945;42.648;23.370;2023-07-02T11:41:39;10.00;;;6.85;;
24873;SDS011;12945;42.648;23.370;2023-07-02T11:44:04;13.75;;;6.72;;
24873;SDS011;12945;42.648;23.370;2023-07-02T11:46:30;9.95;;;6.22;;
24873;SDS011;12945;42.648;23.370;2023-07-02T11:48:55;9.60;;;5.75;;
24873;SDS011;12945;42.648;23.370;2023-07-02T11:51:20;8.25;;;5.70;;
24873;SDS011;12945;42.648;23.370;2023-07-02T11:53:46;8.65;;;5.60;;
24873;SDS011;12945;42.648;23.370;2023-07-02T11:56:11;10.20;;;5.60;;
24873;SDS011;12945;42.648;23.370;2023-07-02T11:58:38;8.20;;;5.57;;
24873;SDS011;12945;42.648;23.370;2023-07-02T12:01:03;10.68;;;6.00;;
24873;SDS011;12945;42.648;23.370;2023-07-02T12:03:28;9.52;;;6.00;;
24873;SDS011;12945;42.648;23.370;2023-07-02T12:05:55;10.75;;;6.07;;
24873;SDS011;12945;42.648;23.370;2023-07-02T12:08:20;11.68;;;5.90;;
24873;SDS011;12945;42.648;23.370;2023-07-02T12:10:46;8.52;;;6.10;;
24873;SDS011;12945;42.648;23.370;2023-07-02T12:13:11;9.30;;;5.60;;
24873;SDS011;12945;42.648;23.370;2023-07-02T12:15:37;9.68;;;5.35;;
24873;SDS011;12945;42.648;23.370;2023-07-02T12:18:02;8.70;;;5.68;;
24873;SDS011;12945;42.648;23.370;2023-07-02T12:20:27;6.90;;;5.57;;
24873;SDS011;12945;42.648;23.370;2023-07-02T12:22:53;7.45;;;5.28;;
24873;SDS011;12945;42.648;23.370;2023-07-02T12:25:18;7.65;;;4.93;;
24873;SDS011;12945;42.648;23.370;2023-07-02T12:27:44;8.43;;;5.07;;
24873;SDS011;12945;42.648;23.370;2023-07-02T12:30:09;10.18;;;5.43;;
24873;SDS011;12945;42.648;23.370;2023-07-02T12:32:34;7.00;;;4.82;;
24873;SDS011;12945;42.648;23.370;2023-07-02T12:35:00;5.80;;;4.88;;
24873;SDS011;12945;42.648;23.370;2023-07-02T12:37:26;11.35;;;5.65;;
24873;SDS011;12945;42.648;23.370;2023-07-02T12:39:52;7.82;;;5.43;;
24873;SDS011;12945;42.648;23.370;2023-07-02T12:42:17;8.13;;;5.50;;
24873;SDS011;12945;42.648;23.370;2023-07-02T12:44:42;9.02;;;5.95;;
24873;SDS011;12945;42.648;23.370;2023-07-02T12:47:08;8.18;;;5.85;;
24873;SDS011;12945;42.648;23.370;2023-07-02T12:49:33;13.32;;;6.60;;
24873;SDS011;12945;42.648;23.370;2023-07-02T12:51:59;9.35;;;6.25;;
24873;SDS011;12945;42.648;23.370;2023-07-02T12:54:24;9.63;;;6.30;;
24873;SDS011;12945;42.648;23.370;2023-07-02T12:56:50;10.50;;;6.03;;
24873;SDS011;12945;42.648;23.370;2023-07-02T12:59:16;11.68;;;5.97;;
24873;SDS011;12945;42.648;23.370;2023-07-02T13:01:41;8.10;;;5.60;;
24873;SDS011;12945;42.648;23.370;2023-07-02T13:04:06;10.50;;;6.50;;
24873;SDS011;12945;42.648;23.370;2023-07-02T13:06:31;11.40;;;6.47;;
24873;SDS011;12945;42.648;23.370;2023-07-02T13:08:59;9.73;;;6.40;;
24873;SDS011;12945;42.648;23.370;2023-07-02T13:11:25;10.02;;;6.45;;
24873;SDS011;12945;42.648;23.370;2023-07-02T13:13:50;13.35;;;6.60;;
24873;SDS011;12945;42.648;23.370;2023-07-02T13:16:16;10.35;;;6.43;;
24873;SDS011;12945;42.648;23.370;2023-07-02T13:18:41;9.52;;;6.72;;
24873;SDS011;12945;42.648;23.370;2023-07-02T13:21:08;9.32;;;6.10;;
24873;SDS011;12945;42.648;23.370;2023-07-02T13:23:33;10.32;;;6.75;;
24873;SDS011;12945;42.648;23.370;2023-07-02T13:25:58;10.88;;;6.25;;
24873;SDS011;12945;42.648;23.370;2023-07-02T13:28:24;9.63;;;6.32;;
24873;SDS011;12945;42.648;23.370;2023-07-02T13:30:50;8.98;;;6.45;;
24873;SDS011;12945;42.648;23.370;2023-07-02T13:33:15;8.13;;;5.95;;
24873;SDS011;12945;42.648;23.370;2023-07-02T13:35:41;10.77;;;6.10;;
24873;SDS011;12945;42.648;23.370;2023-07-02T13:38:06;11.73;;;6.60;;
24873;SDS011;12945;42.648;23.370;2023-07-02T13:40:32;10.60;;;6.45;;
24873;SDS011;12945;42.648;23.370;2023-07-02T13:42:57;9.85;;;6.85;;
24873;SDS011;12945;42.648;23.370;2023-07-02T13:45:22;10.20;;;6.78;;
24873;SDS011;12945;42.648;23.370;2023-07-02T13:47:48;11.95;;;7.13;;
24873;SDS011;12945;42.648;23.370;2023-07-02T13:50:13;14.70;;;9.32;;
24873;SDS011;12945;42.648;23.370;2023-07-02T13:52:39;10.43;;;6.85;;
24873;SDS011;12945;42.648;23.370;2023-07-02T13:55:04;10.73;;;6.88;;
24873;SDS011;12945;42.648;23.370;2023-07-02T13:57:30;9.95;;;5.93;;
24873;SDS011;12945;42.648;23.370;2023-07-02T14:00:01;8.95;;;6.30;;
24873;SDS011;12945;42.648;23.370;2023-07-02T14:02:27;10.70;;;6.38;;
24873;SDS011;12945;42.648;23.370;2023-07-02T14:04:52;11.25;;;6.75;;
24873;SDS011;12945;42.648;23.370;2023-07-02T14:07:18;12.23;;;6.60;;
24873;SDS011;12945;42.648;23.370;2023-07-02T14:09:44;10.88;;;6.57;;
24873;SDS011;12945;42.648;23.370;2023-07-02T14:12:09;11.10;;;6.97;;
24873;SDS011;12945;42.648;23.370;2023-07-02T14:14:34;9.95;;;6.85;;
24873;SDS011;12945;42.648;23.370;2023-07-02T14:17:00;13.30;;;6.85;;